sensor_id;sensor_type;location;lat;lon;timestamp;temperature;humidity
19363;DHT22;9817;50.80926400;5.16316200;2022-11-24T00:00:00;9.90;99.90
19363;DHT22;9817;50.80926400;5.16316200;2022-11-24T00:02:27;9.90;99.90
19363;DHT22;9817;50.80926400;5.16316200;2022-11-24T00:04:53;10.00;99.90
19363;DHT22;9817;50.80926400;5.16316200;2022-11-24T00:07:18;10.00;99.90
19363;DHT22;9817;50.80926400;5.16316200;2022-11-24T00:09:44;10.20;99.90
19363;DHT22;9817;50.80926400;5.16316200;2022-11-24T00:12:09;10.20;99.90
19363;DHT22;9817;50.80926400;5.16316200;2022-11-24T00:14:35;10.10;99.90
19363;DHT22;9817;50.80926400;5.16316200;2022-11-24T00:17:00;9.90;99.90
19363;DHT22;9817;50.80926400;5.16316200;2022-11-24T00:19:26;9.90;99.90
19363;DHT22;9817;50.80926400;5.16316200;2022-11-24T00:21:52;9.90;99.90
19363;DHT22;9817;50.80926400;5.16316200;2022-11-24T00:24:17;9.70;99.90
19363;DHT22;9817;50.80926400;5.16316200;2022-11-24T00:26:43;9.90;99.90
19363;DHT22;9817;50.80926400;5.16316200;2022-11-24T00:29:10;10.00;99.90
19363;DHT22;9817;50.80926400;5.16316200;2022-11-24T00:31:39;10.00;99.90
19363;DHT22;9817;50.80926400;5.16316200;2022-11-24T00:34:13;10.00;99.90
19363;DHT22;9817;50.80926400;5.16316200;2022-11-24T00:36:40;10.10;99.90
19363;DHT22;9817;50.80926400;5.16316200;2022-11-24T00:39:11;10.10;99.90
19363;DHT22;9817;50.80926400;5.16316200;2022-11-24T00:41:37;10.00;99.90
19363;DHT22;9817;50.80926400;5.16316200;2022-11-24T00:44:03;9.90;99.90
19363;DHT22;9817;50.80926400;5.16316200;2022-11-24T00:46:29;10.00;99.90
19363;DHT22;9817;50.80926400;5.16316200;2022-11-24T00:48:54;9.90;99.90
19363;DHT22;9817;50.80926400;5.16316200;2022-11-24T00:51:23;9.90;99.90
19363;DHT22;9817;50.80926400;5.16316200;2022-11-24T00:53:51;9.80;99.90
19363;DHT22;9817;50.80926400;5.16316200;2022-11-24T00:56:17;9.90;99.90
19363;DHT22;9817;50.80926400;5.16316200;2022-11-24T00:58:43;9.80;99.90
19363;DHT22;9817;50.80926400;5.16316200;2022-11-24T01:01:16;9.90;99.90
19363;DHT22;9817;50.80926400;5.16316200;2022-11-24T01:03:43;10.00;99.90
19363;DHT22;9817;50.80926400;5.16316200;2022-11-24T01:06:11;10.10;99.90
19363;DHT22;9817;50.80926400;5.16316200;2022-11-24T01:08:38;10.00;99.90
19363;DHT22;9817;50.80926400;5.16316200;2022-11-24T01:11:25;10.00;99.90
19363;DHT22;9817;50.80926400;5.16316200;2022-11-24T01:13:56;10.00;99.90
19363;DHT22;9817;50.80926400;5.16316200;2022-11-24T01:16:31;9.90;99.90
19363;DHT22;9817;50.80926400;5.16316200;2022-11-24T01:18:57;9.90;99.90
19363;DHT22;9817;50.80926400;5.16316200;2022-11-24T01:21:23;9.90;99.90
19363;DHT22;9817;50.80926400;5.16316200;2022-11-24T01:23:49;9.90;99.90
19363;DHT22;9817;50.80926400;5.16316200;2022-11-24T01:26:18;9.80;99.90
19363;DHT22;9817;50.80926400;5.16316200;2022-11-24T01:28:44;9.90;99.90
19363;DHT22;9817;50.80926400;5.16316200;2022-11-24T01:31:10;10.10;99.90
19363;DHT22;9817;50.80926400;5.16316200;2022-11-24T01:33:36;10.20;99.90
19363;DHT22;9817;50.80926400;5.16316200;2022-11-24T01:36:03;10.10;99.90
19363;DHT22;9817;50.80926400;5.16316200;2022-11-24T01:38:29;9.90;99.90
19363;DHT22;9817;50.80926400;5.16316200;2022-11-24T01:41:16;9.90;99.90
19363;DHT22;9817;50.80926400;5.16316200;2022-11-24T01:43:43;9.90;99.90
19363;DHT22;9817;50.80926400;5.16316200;2022-11-24T01:46:27;10.10;99.90
19363;DHT22;9817;50.80926400;5.16316200;2022-11-24T01:51:38;10.30;99.90
19363;DHT22;9817;50.80926400;5.16316200;2022-11-24T01:54:21;10.30;99.90
19363;DHT22;9817;50.80926400;5.16316200;2022-11-24T01:56:52;10.20;99.90
19363;DHT22;9817;50.80926400;5.16316200;2022-11-24T01:59:20;10.40;99.90
19363;DHT22;9817;50.80926400;5.16316200;2022-11-24T02:01:47;10.30;99.90
19363;DHT22;9817;50.80926400;5.16316200;2022-11-24T02:04:16;10.20;99.90
19363;DHT22;9817;50.80926400;5.16316200;2022-11-24T02:06:44;10.20;99.90
19363;DHT22;9817;50.80926400;5.16316200;2022-11-24T02:09:23;10.20;99.90
19363;DHT22;9817;50.80926400;5.16316200;2022-11-24T02:11:51;10.00;99.90
19363;DHT22;9817;50.80926400;5.16316200;2022-11-24T02:14:18;10.10;99.90
19363;DHT22;9817;50.80926400;5.16316200;2022-11-24T02:16:49;10.10;99.90
19363;DHT22;9817;50.80926400;5.16316200;2022-11-24T02:21:59;10.00;99.90
19363;DHT22;9817;50.80926400;5.16316200;2022-11-24T02:24:55;10.20;99.90
19363;DHT22;9817;50.80926400;5.16316200;2022-11-24T02:27:22;10.10;99.90
19363;DHT22;9817;50.80926400;5.16316200;2022-11-24T02:29:48;10.10;99.90
19363;DHT22;9817;50.80926400;5.16316200;2022-11-24T02:32:15;9.80;99.90
19363;DHT22;9817;50.80926400;5.16316200;2022-11-24T02:34:41;9.90;99.90
19363;DHT22;9817;50.80926400;5.16316200;2022-11-24T02:37:06;9.80;99.90
19363;DHT22;9817;50.80926400;5.16316200;2022-11-24T02:39:33;9.90;99.90
19363;DHT22;9817;50.80926400;5.16316200;2022-11-24T02:42:10;9.70;99.90
19363;DHT22;9817;50.80926400;5.16316200;2022-11-24T02:44:45;9.60;99.90
19363;DHT22;9817;50.80926400;5.16316200;2022-11-24T02:47:12;9.40;99.90
19363;DHT22;9817;50.80926400;5.16316200;2022-11-24T02:49:38;9.60;99.90
19363;DHT22;9817;50.80926400;5.16316200;2022-11-24T02:52:04;9.70;99.90
19363;DHT22;9817;50.80926400;5.16316200;2022-11-24T02:54:30;9.70;99.90
19363;DHT22;9817;50.80926400;5.16316200;2022-11-24T02:56:56;9.70;99.90
19363;DHT22;9817;50.80926400;5.16316200;2022-11-24T02:59:21;9.90;99.90
19363;DHT22;9817;50.80926400;5.16316200;2022-11-24T03:01:47;9.90;99.90
19363;DHT22;9817;50.80926400;5.16316200;2022-11-24T03:04:13;10.00;99.90
19363;DHT22;9817;50.80926400;5.16316200;2022-11-24T03:06:38;10.00;99.90
19363;DHT22;9817;50.80926400;5.16316200;2022-11-24T03:09:04;10.00;99.90
19363;DHT22;9817;50.80926400;5.16316200;2022-11-24T03:11:30;10.00;99.90
19363;DHT22;9817;50.80926400;5.16316200;2022-11-24T03:13:56;9.90;99.90
19363;DHT22;9817;50.80926400;5.16316200;2022-11-24T03:16:21;9.90;99.90
19363;DHT22;9817;50.80926400;5.16316200;2022-11-24T03:18:50;10.10;99.90
19363;DHT22;9817;50.80926400;5.16316200;2022-11-24T03:21:15;10.40;99.90
19363;DHT22;9817;50.80926400;5.16316200;2022-11-24T03:23:41;10.40;99.90
19363;DHT22;9817;50.80926400;5.16316200;2022-11-24T03:26:15;10.40;99.90
19363;DHT22;9817;50.80926400;5.16316200;2022-11-24T03:28:42;10.50;99.90
19363;DHT22;9817;50.80926400;5.16316200;2022-11-24T03:31:08;10.30;99.90
19363;DHT22;9817;50.80926400;5.16316200;2022-11-24T03:33:35;10.40;99.90
19363;DHT22;9817;50.80926400;5.16316200;2022-11-24T03:36:01;10.30;99.90
19363;DHT22;9817;50.80926400;5.16316200;2022-11-24T03:38:27;10.50;99.90
19363;DHT22;9817;50.80926400;5.16316200;2022-11-24T03:40:52;10.60;99.90
19363;DHT22;9817;50.80926400;5.16316200;2022-11-24T03:43:18;10.70;99.90
19363;DHT22;9817;50.80926400;5.16316200;2022-11-24T03:45:45;10.50;99.90
19363;DHT22;9817;50.80926400;5.16316200;2022-11-24T03:48:11;10.40;99.90
19363;DHT22;9817;50.80926400;5.16316200;2022-11-24T03:50:36;10.40;99.90
19363;DHT22;9817;50.80926400;5.16316200;2022-11-24T03:53:02;10.40;99.90
19363;DHT22;9817;50.80926400;5.16316200;2022-11-24T03:55:28;10.50;99.90
19363;DHT22;9817;50.80926400;5.16316200;2022-11-24T03:57:53;10.60;99.90
19363;DHT22;9817;50.80926400;5.16316200;2022-11-24T04:00:19;10.70;99.90
19363;DHT22;9817;50.80926400;5.16316200;2022-11-24T04:02:44;10.60;99.90
19363;DHT22;9817;50.80926400;5.16316200;2022-11-24T04:05:10;10.60;99.90
19363;DHT22;9817;50.80926400;5.16316200;2022-11-24T04:07:36;10.70;99.90
19363;DHT22;9817;50.80926400;5.16316200;2022-11-24T04:10:01;10.50;99.90
19363;DHT22;9817;50.80926400;5.16316200;2022-11-24T04:12:27;10.60;99.90
19363;DHT22;9817;50.80926400;5.16316200;2022-11-24T04:15:08;10.50;99.90
19363;DHT22;9817;50.80926400;5.16316200;2022-11-24T04:17:34;10.30;99.90
19363;DHT22;9817;50.80926400;5.16316200;2022-11-24T04:19:59;10.30;99.90
19363;DHT22;9817;50.80926400;5.16316200;2022-11-24T04:22:25;10.40;99.90
19363;DHT22;9817;50.80926400;5.16316200;2022-11-24T04:24:51;10.50;99.90
19363;DHT22;9817;50.80926400;5.16316200;2022-11-24T04:27:16;10.40;99.90
19363;DHT22;9817;50.80926400;5.16316200;2022-11-24T04:29:42;10.40;99.90
19363;DHT22;9817;50.80926400;5.16316200;2022-11-24T04:32:07;10.40;99.90
19363;DHT22;9817;50.80926400;5.16316200;2022-11-24T04:34:35;10.40;99.90
19363;DHT22;9817;50.80926400;5.16316200;2022-11-24T04:37:01;10.30;99.90
19363;DHT22;9817;50.80926400;5.16316200;2022-11-24T04:39:26;10.30;99.90
19363;DHT22;9817;50.80926400;5.16316200;2022-11-24T04:41:52;10.20;99.90
19363;DHT22;9817;50.80926400;5.16316200;2022-11-24T04:44:17;10.20;99.90
19363;DHT22;9817;50.80926400;5.16316200;2022-11-24T04:46:43;10.20;99.90
19363;DHT22;9817;50.80926400;5.16316200;2022-11-24T04:49:09;10.20;99.90
19363;DHT22;9817;50.80926400;5.16316200;2022-11-24T04:51:37;10.10;99.90
19363;DHT22;9817;50.80926400;5.16316200;2022-11-24T04:54:04;10.20;99.90
19363;DHT22;9817;50.80926400;5.16316200;2022-11-24T04:56:29;10.20;99.90
19363;DHT22;9817;50.80926400;5.16316200;2022-11-24T04:58:55;10.00;99.90
19363;DHT22;9817;50.80926400;5.16316200;2022-11-24T05:01:21;9.90;99.90
19363;DHT22;9817;50.80926400;5.16316200;2022-11-24T05:03:46;9.90;99.90
19363;DHT22;9817;50.80926400;5.16316200;2022-11-24T05:06:12;9.80;99.90
19363;DHT22;9817;50.80926400;5.16316200;2022-11-24T05:08:37;9.70;99.90
19363;DHT22;9817;50.80926400;5.16316200;2022-11-24T05:11:05;9.70;99.90
19363;DHT22;9817;50.80926400;5.16316200;2022-11-24T05:13:32;9.80;99.90
19363;DHT22;9817;50.80926400;5.16316200;2022-11-24T05:15:58;9.80;99.90
19363;DHT22;9817;50.80926400;5.16316200;2022-11-24T05:18:24;9.60;99.90
19363;DHT22;9817;50.80926400;5.16316200;2022-11-24T05:20:50;9.60;99.90
19363;DHT22;9817;50.80926400;5.16316200;2022-11-24T05:23:16;9.60;99.90
19363;DHT22;9817;50.80926400;5.16316200;2022-11-24T05:25:41;9.60;99.90
19363;DHT22;9817;50.80926400;5.16316200;2022-11-24T05:28:08;9.50;99.90
19363;DHT22;9817;50.80926400;5.16316200;2022-11-24T05:30:38;9.40;99.90
19363;DHT22;9817;50.80926400;5.16316200;2022-11-24T05:33:05;9.20;99.90
19363;DHT22;9817;50.80926400;5.16316200;2022-11-24T05:35:31;9.20;99.90
19363;DHT22;9817;50.80926400;5.16316200;2022-11-24T05:37:57;9.20;99.90
19363;DHT22;9817;50.80926400;5.16316200;2022-11-24T05:40:23;9.10;99.90
19363;DHT22;9817;50.80926400;5.16316200;2022-11-24T05:42:49;9.00;99.90
19363;DHT22;9817;50.80926400;5.16316200;2022-11-24T05:45:17;9.10;99.90
19363;DHT22;9817;50.80926400;5.16316200;2022-11-24T05:47:44;9.00;99.90
19363;DHT22;9817;50.80926400;5.16316200;2022-11-24T05:50:12;9.00;99.90
19363;DHT22;9817;50.80926400;5.16316200;2022-11-24T05:52:38;9.10;99.90
19363;DHT22;9817;50.80926400;5.16316200;2022-11-24T05:55:04;9.10;99.90
19363;DHT22;9817;50.80926400;5.16316200;2022-11-24T05:57:34;9.20;99.90
19363;DHT22;9817;50.80926400;5.16316200;2022-11-24T06:00:00;9.10;99.90
19363;DHT22;9817;50.80926400;5.16316200;2022-11-24T06:02:26;9.10;99.90
19363;DHT22;9817;50.80926400;5.16316200;2022-11-24T06:04:51;9.20;99.90
19363;DHT22;9817;50.80926400;5.16316200;2022-11-24T06:07:17;9.10;99.90
19363;DHT22;9817;50.80926400;5.16316200;2022-11-24T06:09:43;9.00;99.90
19363;DHT22;9817;50.80926400;5.16316200;2022-11-24T06:12:10;9.00;99.90
19363;DHT22;9817;50.80926400;5.16316200;2022-11-24T06:14:37;9.10;99.90
19363;DHT22;9817;50.80926400;5.16316200;2022-11-24T06:17:04;9.40;99.90
19363;DHT22;9817;50.80926400;5.16316200;2022-11-24T06:19:30;9.30;99.90
19363;DHT22;9817;50.80926400;5.16316200;2022-11-24T06:21:55;9.10;99.90
19363;DHT22;9817;50.80926400;5.16316200;2022-11-24T06:24:21;9.30;99.90
19363;DHT22;9817;50.80926400;5.16316200;2022-11-24T06:26:47;9.30;99.90
19363;DHT22;9817;50.80926400;5.16316200;2022-11-24T06:29:12;9.10;99.90
19363;DHT22;9817;50.80926400;5.16316200;2022-11-24T06:31:38;9.20;99.90
19363;DHT22;9817;50.80926400;5.16316200;2022-11-24T06:34:08;9.20;99.90
19363;DHT22;9817;50.80926400;5.16316200;2022-11-24T06:36:36;9.00;99.90
19363;DHT22;9817;50.80926400;5.16316200;2022-11-24T06:39:02;8.80;99.90
19363;DHT22;9817;50.80926400;5.16316200;2022-11-24T06:41:28;8.80;99.90
19363;DHT22;9817;50.80926400;5.16316200;2022-11-24T06:43:54;8.90;99.90
19363;DHT22;9817;50.80926400;5.16316200;2022-11-24T06:46:20;9.20;99.90
19363;DHT22;9817;50.80926400;5.16316200;2022-11-24T06:48:46;9.10;99.90
19363;DHT22;9817;50.80926400;5.16316200;2022-11-24T06:51:12;9.20;99.90
19363;DHT22;9817;50.80926400;5.16316200;2022-11-24T06:53:38;9.20;99.90
19363;DHT22;9817;50.80926400;5.16316200;2022-11-24T06:56:07;9.20;99.90
19363;DHT22;9817;50.80926400;5.16316200;2022-11-24T06:58:32;9.30;99.90
19363;DHT22;9817;50.80926400;5.16316200;2022-11-24T07:00:58;9.10;99.90
19363;DHT22;9817;50.80926400;5.16316200;2022-11-24T07:03:24;9.10;99.90
19363;DHT22;9817;50.80926400;5.16316200;2022-11-24T07:05:57;9.10;99.90
19363;DHT22;9817;50.80926400;5.16316200;2022-11-24T07:08:24;9.10;99.90
19363;DHT22;9817;50.80926400;5.16316200;2022-11-24T07:10:50;9.10;99.90
19363;DHT22;9817;50.80926400;5.16316200;2022-11-24T07:13:19;9.00;99.90
19363;DHT22;9817;50.80926400;5.16316200;2022-11-24T07:15:46;9.00;99.90
19363;DHT22;9817;50.80926400;5.16316200;2022-11-24T07:18:12;9.10;99.90
19363;DHT22;9817;50.80926400;5.16316200;2022-11-24T07:20:37;9.10;99.90
19363;DHT22;9817;50.80926400;5.16316200;2022-11-24T07:23:03;9.20;99.90
19363;DHT22;9817;50.80926400;5.16316200;2022-11-24T07:25:29;9.20;99.90
19363;DHT22;9817;50.80926400;5.16316200;2022-11-24T07:27:58;9.00;99.90
19363;DHT22;9817;50.80926400;5.16316200;2022-11-24T07:30:25;9.00;99.90
19363;DHT22;9817;50.80926400;5.16316200;2022-11-24T07:32:51;9.00;99.90
19363;DHT22;9817;50.80926400;5.16316200;2022-11-24T07:35:22;8.90;99.90
19363;DHT22;9817;50.80926400;5.16316200;2022-11-24T07:37:48;8.90;99.90
19363;DHT22;9817;50.80926400;5.16316200;2022-11-24T07:40:13;9.00;99.90
19363;DHT22;9817;50.80926400;5.16316200;2022-11-24T07:42:39;9.20;99.90
19363;DHT22;9817;50.80926400;5.16316200;2022-11-24T07:45:05;9.20;99.90
19363;DHT22;9817;50.80926400;5.16316200;2022-11-24T07:47:31;9.20;99.90
19363;DHT22;9817;50.80926400;5.16316200;2022-11-24T07:49:56;9.10;99.90
19363;DHT22;9817;50.80926400;5.16316200;2022-11-24T07:52:22;9.10;99.90
19363;DHT22;9817;50.80926400;5.16316200;2022-11-24T07:54:51;9.10;99.90
19363;DHT22;9817;50.80926400;5.16316200;2022-11-24T07:57:16;9.20;99.90
19363;DHT22;9817;50.80926400;5.16316200;2022-11-24T07:59:42;9.30;99.90
19363;DHT22;9817;50.80926400;5.16316200;2022-11-24T08:02:10;9.40;99.90
19363;DHT22;9817;50.80926400;5.16316200;2022-11-24T08:04:36;9.50;99.90
19363;DHT22;9817;50.80926400;5.16316200;2022-11-24T08:07:02;9.50;99.90
19363;DHT22;9817;50.80926400;5.16316200;2022-11-24T08:09:27;9.50;99.90
19363;DHT22;9817;50.80926400;5.16316200;2022-11-24T08:11:53;9.60;99.90
19363;DHT22;9817;50.80926400;5.16316200;2022-11-24T08:14:18;9.60;99.90
19363;DHT22;9817;50.80926400;5.16316200;2022-11-24T08:16:44;9.40;99.90
19363;DHT22;9817;50.80926400;5.16316200;2022-11-24T08:19:10;9.50;99.90
19363;DHT22;9817;50.80926400;5.16316200;2022-11-24T08:21:36;9.50;99.90
19363;DHT22;9817;50.80926400;5.16316200;2022-11-24T08:24:03;9.50;99.90
19363;DHT22;9817;50.80926400;5.16316200;2022-11-24T08:26:28;9.40;99.90
19363;DHT22;9817;50.80926400;5.16316200;2022-11-24T08:28:57;9.50;99.90
19363;DHT22;9817;50.80926400;5.16316200;2022-11-24T08:31:24;9.50;99.90
19363;DHT22;9817;50.80926400;5.16316200;2022-11-24T08:33:56;9.60;99.90
19363;DHT22;9817;50.80926400;5.16316200;2022-11-24T08:36:22;9.80;99.90
19363;DHT22;9817;50.80926400;5.16316200;2022-11-24T08:38:52;9.80;99.90
19363;DHT22;9817;50.80926400;5.16316200;2022-11-24T08:41:17;9.80;99.90
19363;DHT22;9817;50.80926400;5.16316200;2022-11-24T08:43:43;10.00;99.90
19363;DHT22;9817;50.80926400;5.16316200;2022-11-24T08:46:13;9.90;99.90
19363;DHT22;9817;50.80926400;5.16316200;2022-11-24T08:48:42;9.90;99.90
19363;DHT22;9817;50.80926400;5.16316200;2022-11-24T08:51:10;10.00;99.90
19363;DHT22;9817;50.80926400;5.16316200;2022-11-24T08:53:37;10.00;99.90
19363;DHT22;9817;50.80926400;5.16316200;2022-11-24T08:56:03;10.00;99.90
19363;DHT22;9817;50.80926400;5.16316200;2022-11-24T08:58:29;9.90;99.90
19363;DHT22;9817;50.80926400;5.16316200;2022-11-24T09:00:55;10.00;99.90
19363;DHT22;9817;50.80926400;5.16316200;2022-11-24T09:03:27;10.20;99.90
19363;DHT22;9817;50.80926400;5.16316200;2022-11-24T09:05:53;10.10;99.90
19363;DHT22;9817;50.80926400;5.16316200;2022-11-24T09:08:18;10.20;99.90
19363;DHT22;9817;50.80926400;5.16316200;2022-11-24T09:10:44;10.20;99.90
19363;DHT22;9817;50.80926400;5.16316200;2022-11-24T09:13:11;10.10;99.90
19363;DHT22;9817;50.80926400;5.16316200;2022-11-24T09:15:36;10.20;99.90
19363;DHT22;9817;50.80926400;5.16316200;2022-11-24T09:18:02;10.30;99.90
19363;DHT22;9817;50.80926400;5.16316200;2022-11-24T09:20:27;10.40;99.90
19363;DHT22;9817;50.80926400;5.16316200;2022-11-24T09:22:55;10.40;99.90
19363;DHT22;9817;50.80926400;5.16316200;2022-11-24T09:25:21;10.40;99.90
19363;DHT22;9817;50.80926400;5.16316200;2022-11-24T09:27:48;10.40;99.90
19363;DHT22;9817;50.80926400;5.16316200;2022-11-24T09:30:14;10.50;99.90
19363;DHT22;9817;50.80926400;5.16316200;2022-11-24T09:32:40;10.60;99.90
19363;DHT22;9817;50.80926400;5.16316200;2022-11-24T09:35:06;10.70;99.90
19363;DHT22;9817;50.80926400;5.16316200;2022-11-24T09:37:32;10.60;99.90
19363;DHT22;9817;50.80926400;5.16316200;2022-11-24T09:39:58;10.70;99.90
19363;DHT22;9817;50.80926400;5.16316200;2022-11-24T09:42:54;10.80;99.90
19363;DHT22;9817;50.80926400;5.16316200;2022-11-24T09:45:45;11.00;99.90
19363;DHT22;9817;50.80926400;5.16316200;2022-11-24T09:48:26;11.00;99.90
19363;DHT22;9817;50.80926400;5.16316200;2022-11-24T09:50:57;11.00;99.90
19363;DHT22;9817;50.80926400;5.16316200;2022-11-24T09:53:34;11.10;99.90
19363;DHT22;9817;50.80926400;5.16316200;2022-11-24T09:58:53;11.20;99.90
19363;DHT22;9817;50.80926400;5.16316200;2022-11-24T10:03:53;11.30;99.90
19363;DHT22;9817;50.80926400;5.16316200;2022-11-24T10:06:26;11.50;99.90
19363;DHT22;9817;50.80926400;5.16316200;2022-11-24T10:17:45;11.60;99.90
19363;DHT22;9817;50.80926400;5.16316200;2022-11-24T10:20:27;11.60;99.90
19363;DHT22;9817;50.80926400;5.16316200;2022-11-24T10:23:09;11.70;99.90
19363;DHT22;9817;50.80926400;5.16316200;2022-11-24T10:25:59;11.90;99.90
19363;DHT22;9817;50.80926400;5.16316200;2022-11-24T10:28:52;12.10;99.90
19363;DHT22;9817;50.80926400;5.16316200;2022-11-24T10:31:35;12.00;99.90
19363;DHT22;9817;50.80926400;5.16316200;2022-11-24T10:34:35;11.90;99.90
19363;DHT22;9817;50.80926400;5.16316200;2022-11-24T10:39:41;12.10;99.90
19363;DHT22;9817;50.80926400;5.16316200;2022-11-24T10:42:13;12.10;99.90
19363;DHT22;9817;50.80926400;5.16316200;2022-11-24T10:44:41;12.20;99.90
19363;DHT22;9817;50.80926400;5.16316200;2022-11-24T10:47:17;12.40;99.90
19363;DHT22;9817;50.80926400;5.16316200;2022-11-24T10:49:49;12.50;99.90
19363;DHT22;9817;50.80926400;5.16316200;2022-11-24T10:52:17;12.30;99.90
19363;DHT22;9817;50.80926400;5.16316200;2022-11-24T10:55:00;12.10;99.90
19363;DHT22;9817;50.80926400;5.16316200;2022-11-24T10:57:34;12.10;99.90
19363;DHT22;9817;50.80926400;5.16316200;2022-11-24T11:00:03;12.10;99.90
19363;DHT22;9817;50.80926400;5.16316200;2022-11-24T11:02:48;12.30;99.90
19363;DHT22;9817;50.80926400;5.16316200;2022-11-24T11:05:37;12.40;99.90
19363;DHT22;9817;50.80926400;5.16316200;2022-11-24T11:10:48;12.30;99.90
19363;DHT22;9817;50.80926400;5.16316200;2022-11-24T11:13:28;12.50;99.90
19363;DHT22;9817;50.80926400;5.16316200;2022-11-24T11:15:56;12.60;99.90
19363;DHT22;9817;50.80926400;5.16316200;2022-11-24T11:18:27;12.70;99.90
19363;DHT22;9817;50.80926400;5.16316200;2022-11-24T11:20:55;12.80;99.90
19363;DHT22;9817;50.80926400;5.16316200;2022-11-24T11:23:27;12.90;99.90
19363;DHT22;9817;50.80926400;5.16316200;2022-11-24T11:26:15;12.90;99.90
19363;DHT22;9817;50.80926400;5.16316200;2022-11-24T11:29:17;13.10;99.90
19363;DHT22;9817;50.80926400;5.16316200;2022-11-24T11:31:41;13.10;99.90
19363;DHT22;9817;50.80926400;5.16316200;2022-11-24T11:34:19;13.10;99.90
19363;DHT22;9817;50.80926400;5.16316200;2022-11-24T11:36:49;13.20;99.90
19363;DHT22;9817;50.80926400;5.16316200;2022-11-24T11:39:45;13.40;99.90
19363;DHT22;9817;50.80926400;5.16316200;2022-11-24T11:47:28;13.20;99.90
19363;DHT22;9817;50.80926400;5.16316200;2022-11-24T11:49:56;13.30;99.90
19363;DHT22;9817;50.80926400;5.16316200;2022-11-24T11:52:44;13.20;99.90
19363;DHT22;9817;50.80926400;5.16316200;2022-11-24T12:01:02;13.30;99.90
19363;DHT22;9817;50.80926400;5.16316200;2022-11-24T12:03:38;13.30;99.90
19363;DHT22;9817;50.80926400;5.16316200;2022-11-24T12:17:01;13.50;99.90
19363;DHT22;9817;50.80926400;5.16316200;2022-11-24T12:19:44;13.50;99.90
19363;DHT22;9817;50.80926400;5.16316200;2022-11-24T12:22:28;13.50;99.90
19363;DHT22;9817;50.80926400;5.16316200;2022-11-24T12:25:31;13.20;99.90
19363;DHT22;9817;50.80926400;5.16316200;2022-11-24T12:28:13;13.40;99.90
19363;DHT22;9817;50.80926400;5.16316200;2022-11-24T12:30:52;13.40;99.90
19363;DHT22;9817;50.80926400;5.16316200;2022-11-24T12:33:43;13.50;99.90
19363;DHT22;9817;50.80926400;5.16316200;2022-11-24T12:39:04;13.30;99.90
19363;DHT22;9817;50.80926400;5.16316200;2022-11-24T12:44:43;13.20;99.90
19363;DHT22;9817;50.80926400;5.16316200;2022-11-24T12:47:14;13.30;99.90
19363;DHT22;9817;50.80926400;5.16316200;2022-11-24T12:50:16;13.40;99.90
19363;DHT22;9817;50.80926400;5.16316200;2022-11-24T12:52:50;13.50;99.90
19363;DHT22;9817;50.80926400;5.16316200;2022-11-24T12:55:20;13.40;99.90
19363;DHT22;9817;50.80926400;5.16316200;2022-11-24T12:58:13;13.20;99.90
19363;DHT22;9817;50.80926400;5.16316200;2022-11-24T13:00:52;13.20;99.90
19363;DHT22;9817;50.80926400;5.16316200;2022-11-24T13:03:32;13.30;99.90
19363;DHT22;9817;50.80926400;5.16316200;2022-11-24T13:06:24;13.10;99.90
19363;DHT22;9817;50.80926400;5.16316200;2022-11-24T13:08:52;13.00;99.90
19363;DHT22;9817;50.80926400;5.16316200;2022-11-24T13:14:22;13.00;99.90
19363;DHT22;9817;50.80926400;5.16316200;2022-11-24T13:16:54;13.10;99.90
19363;DHT22;9817;50.80926400;5.16316200;2022-11-24T13:19:22;13.20;99.90
19363;DHT22;9817;50.80926400;5.16316200;2022-11-24T13:22:21;13.20;99.90
19363;DHT22;9817;50.80926400;5.16316200;2022-11-24T13:25:19;13.30;99.90
19363;DHT22;9817;50.80926400;5.16316200;2022-11-24T13:27:48;13.50;99.90
19363;DHT22;9817;50.80926400;5.16316200;2022-11-24T13:33:27;13.80;99.90
19363;DHT22;9817;50.80926400;5.16316200;2022-11-24T13:41:58;13.60;99.90
19363;DHT22;9817;50.80926400;5.16316200;2022-11-24T13:46:59;13.40;99.90
19363;DHT22;9817;50.80926400;5.16316200;2022-11-24T13:49:42;13.40;99.90
19363;DHT22;9817;50.80926400;5.16316200;2022-11-24T13:52:44;13.40;99.90
19363;DHT22;9817;50.80926400;5.16316200;2022-11-24T13:57:41;13.20;99.90
19363;DHT22;9817;50.80926400;5.16316200;2022-11-24T14:00:26;13.00;99.90
19363;DHT22;9817;50.80926400;5.16316200;2022-11-24T14:03:37;13.00;99.90
19363;DHT22;9817;50.80926400;5.16316200;2022-11-24T14:05:51;12.80;99.90
19363;DHT22;9817;50.80926400;5.16316200;2022-11-24T14:08:26;12.70;99.90
19363;DHT22;9817;50.80926400;5.16316200;2022-11-24T14:10:55;12.60;99.90
19363;DHT22;9817;50.80926400;5.16316200;2022-11-24T14:13:30;12.60;99.90
19363;DHT22;9817;50.80926400;5.16316200;2022-11-24T14:18:32;12.50;99.90
19363;DHT22;9817;50.80926400;5.16316200;2022-11-24T14:21:00;12.50;99.90
19363;DHT22;9817;50.80926400;5.16316200;2022-11-24T14:23:26;12.50;99.90
19363;DHT22;9817;50.80926400;5.16316200;2022-11-24T14:25:52;12.40;99.90
19363;DHT22;9817;50.80926400;5.16316200;2022-11-24T14:28:23;12.30;99.90
19363;DHT22;9817;50.80926400;5.16316200;2022-11-24T14:30:50;12.20;99.90
19363;DHT22;9817;50.80926400;5.16316200;2022-11-24T14:33:30;12.30;99.90
19363;DHT22;9817;50.80926400;5.16316200;2022-11-24T14:35:55;12.10;99.90
19363;DHT22;9817;50.80926400;5.16316200;2022-11-24T14:38:21;12.10;99.90
19363;DHT22;9817;50.80926400;5.16316200;2022-11-24T14:41:14;12.00;99.90
19363;DHT22;9817;50.80926400;5.16316200;2022-11-24T14:43:43;12.00;99.90
19363;DHT22;9817;50.80926400;5.16316200;2022-11-24T14:46:10;11.90;99.90
19363;DHT22;9817;50.80926400;5.16316200;2022-11-24T14:48:47;11.80;99.90
19363;DHT22;9817;50.80926400;5.16316200;2022-11-24T14:51:18;11.70;99.90
19363;DHT22;9817;50.80926400;5.16316200;2022-11-24T14:53:47;11.60;99.90
19363;DHT22;9817;50.80926400;5.16316200;2022-11-24T14:59:23;11.60;99.90
19363;DHT22;9817;50.80926400;5.16316200;2022-11-24T15:01:48;11.60;99.90
19363;DHT22;9817;50.80926400;5.16316200;2022-11-24T15:06:45;11.50;99.90
19363;DHT22;9817;50.80926400;5.16316200;2022-11-24T15:09:27;11.50;99.90
19363;DHT22;9817;50.80926400;5.16316200;2022-11-24T15:11:55;11.30;99.90